createdAt,value
2019-02-19T00:25:06.771Z,44.93
2019-02-19T00:27:35.268Z,37.43
2019-02-19T00:30:04.165Z,43.53
2019-02-19T00:32:32.564Z,38.97
2019-02-19T00:35:01.268Z,39.97
2019-02-19T00:37:29.950Z,37.20
2019-02-19T00:39:58.400Z,40.83
2019-02-19T00:42:27.115Z,37.90
2019-02-19T00:44:55.559Z,35.40
2019-02-19T00:47:23.933Z,35.73
2019-02-19T00:49:52.394Z,38.93
2019-02-19T00:52:20.895Z,40.37
2019-02-19T00:54:49.288Z,39.03
2019-02-19T00:57:17.907Z,39.33
2019-02-19T00:59:46.372Z,40.63
2019-02-19T01:02:14.845Z,40.97
2019-02-19T01:04:43.238Z,40.73
2019-02-19T01:07:11.626Z,41.93
2019-02-19T01:09:40.082Z,37.50
2019-02-19T01:12:08.523Z,40.77
2019-02-19T01:14:37.052Z,36.33
2019-02-19T01:17:05.442Z,36.43
2019-02-19T01:19:33.905Z,36.57
2019-02-19T01:22:02.304Z,43.17
2019-02-19T01:24:30.738Z,35.03
2019-02-19T01:26:59.520Z,38.80
2019-02-19T01:29:28.224Z,38.80
2019-02-19T01:31:56.616Z,41.20
2019-02-19T01:34:24.805Z,41.37
2019-02-19T01:36:53.217Z,36.30
2019-02-19T01:39:21.655Z,35.30
2019-02-19T01:41:50.069Z,44.03
2019-02-19T01:44:18.503Z,37.27
2019-02-19T01:46:46.951Z,37.97
2019-02-19T01:49:15.580Z,40.93
2019-02-19T01:51:44.016Z,32.20
2019-02-19T01:54:12.767Z,34.73
2019-02-19T01:56:41.126Z,36.17
2019-02-19T01:59:09.892Z,39.77
2019-02-19T02:01:38.419Z,38.43
2019-02-19T02:04:06.858Z,33.70
2019-02-19T02:06:35.378Z,36.00
2019-02-19T02:09:04.930Z,41.37
2019-02-19T02:11:33.379Z,43.53
2019-02-19T02:14:01.907Z,41.57
2019-02-19T02:16:30.493Z,45.30
2019-02-19T02:18:59.173Z,39.07
2019-02-19T02:21:27.639Z,34.60
2019-02-19T02:23:56.250Z,34.20
2019-02-19T02:26:24.654Z,35.80
2019-02-19T02:28:53.155Z,30.13
2019-02-19T02:31:21.643Z,37.80
2019-02-19T02:33:50.355Z,32.33
2019-02-19T02:36:18.926Z,37.13
2019-02-19T02:38:47.302Z,43.70
2019-02-19T02:41:16.003Z,35.13
2019-02-19T02:43:44.436Z,36.10
2019-02-19T02:46:12.916Z,32.13
2019-02-19T02:48:41.282Z,35.93
2019-02-19T02:51:09.712Z,42.43
2019-02-19T02:53:38.183Z,38.90
2019-02-19T02:56:06.616Z,37.00
2019-02-19T02:58:35.018Z,38.50
2019-02-19T03:01:03.404Z,37.77
2019-02-19T03:03:31.941Z,37.80
2019-02-19T03:06:02.811Z,33.70
2019-02-19T03:08:31.242Z,35.43
2019-02-19T03:10:59.633Z,34.93
2019-02-19T03:13:28.005Z,43.50
2019-02-19T03:16:02.532Z,37.03
2019-02-19T03:18:26.902Z,36.63
2019-02-19T03:20:55.301Z,38.00
2019-02-19T03:23:23.664Z,39.27
2019-02-19T03:25:52.154Z,36.77
2019-02-19T03:28:20.589Z,36.83
2019-02-19T03:30:48.976Z,34.60
2019-02-19T03:33:17.385Z,40.20
2019-02-19T03:35:45.747Z,38.20
2019-02-19T03:38:14.195Z,40.00
2019-02-19T03:40:42.622Z,32.37
2019-02-19T03:43:11.057Z,36.07
2019-02-19T03:45:39.566Z,31.97
2019-02-19T03:48:08.026Z,38.67
2019-02-19T03:50:36.470Z,44.30
2019-02-19T03:53:05.050Z,35.07
2019-02-19T03:55:33.503Z,41.53
2019-02-19T03:58:02.303Z,38.80
2019-02-19T04:00:30.784Z,43.47
2019-02-19T04:02:59.231Z,47.13
2019-02-19T04:05:27.681Z,36.60
2019-02-19T04:07:56.065Z,36.83
2019-02-19T04:10:24.425Z,38.10
2019-02-19T04:12:52.956Z,34.93
2019-02-19T04:15:21.488Z,36.73
2019-02-19T04:17:49.957Z,38.17
2019-02-19T04:20:18.333Z,51.03
2019-02-19T04:22:46.731Z,37.77
2019-02-19T04:25:15.137Z,44.23
2019-02-19T04:27:43.523Z,36.93
2019-02-19T04:30:12.036Z,36.30
2019-02-19T04:32:40.453Z,36.63
2019-02-19T04:35:09.258Z,44.03
2019-02-19T04:37:37.789Z,38.43
2019-02-19T04:40:08.007Z,35.50
2019-02-19T04:42:36.434Z,36.97
2019-02-19T04:45:05.658Z,40.17
2019-02-19T04:47:34.064Z,33.40
2019-02-19T04:50:02.446Z,34.10
2019-02-19T04:52:31.154Z,33.33
2019-02-19T04:54:59.582Z,35.63
2019-02-19T04:57:28.058Z,36.43
2019-02-19T04:59:56.832Z,34.73
2019-02-19T05:02:25.239Z,33.37
2019-02-19T05:04:53.602Z,35.27
2019-02-19T05:07:22.034Z,41.90
2019-02-19T05:09:50.555Z,32.27
2019-02-19T05:12:18.918Z,33.23
2019-02-19T05:14:47.503Z,32.13
2019-02-19T05:17:16.439Z,35.57
2019-02-19T05:19:44.970Z,37.90
2019-02-19T05:22:13.405Z,35.70
2019-02-19T05:24:41.857Z,35.83
2019-02-19T05:27:10.405Z,37.97
2019-02-19T05:29:38.803Z,39.47
2019-02-19T05:32:07.259Z,39.60
2019-02-19T05:34:35.643Z,34.73
2019-02-19T05:37:04.086Z,33.07
2019-02-19T05:39:32.532Z,31.00
2019-02-19T05:42:00.936Z,43.73
2019-02-19T05:44:29.617Z,37.30
2019-02-19T05:46:58.430Z,32.43
2019-02-19T05:49:26.934Z,33.83
2019-02-19T05:51:55.470Z,30.90
2019-02-19T05:54:23.951Z,34.23
2019-02-19T05:56:52.410Z,35.20
2019-02-19T05:59:20.825Z,32.00
2019-02-19T06:01:49.635Z,30.63
2019-02-19T06:04:18.302Z,31.53
2019-02-19T06:06:46.689Z,36.77
2019-02-19T06:09:15.418Z,35.97
2019-02-19T06:11:43.886Z,30.80
2019-02-19T06:14:12.336Z,35.03
2019-02-19T06:16:40.966Z,33.30
2019-02-19T06:19:09.400Z,35.73
2019-02-19T06:21:38.002Z,34.43
2019-02-19T06:24:06.616Z,34.30
2019-02-19T06:26:35.029Z,31.30
2019-02-19T06:29:03.625Z,34.23
2019-02-19T06:31:32.018Z,31.37
2019-02-19T06:34:00.420Z,34.70
2019-02-19T06:36:29.151Z,34.37
2019-02-19T06:38:57.583Z,32.07
2019-02-19T06:41:26.073Z,34.33
2019-02-19T06:43:54.507Z,32.47
2019-02-19T06:46:22.913Z,34.97
2019-02-19T06:48:51.298Z,32.07
2019-02-19T06:51:19.773Z,36.20
2019-02-19T06:53:48.236Z,32.60
2019-02-19T06:56:16.691Z,31.33
2019-02-19T06:58:45.055Z,35.77
2019-02-19T07:01:13.804Z,32.70
2019-02-19T07:03:43.876Z,45.60
2019-02-19T07:06:12.328Z,29.97
2019-02-19T07:08:40.764Z,31.40
2019-02-19T07:11:09.386Z,35.50
2019-02-19T07:13:37.795Z,30.83
2019-02-19T07:16:06.237Z,36.30
2019-02-19T07:18:34.757Z,29.10
2019-02-19T07:21:03.153Z,38.43
2019-02-19T07:23:31.814Z,33.23
2019-02-19T07:26:00.279Z,36.60
2019-02-19T07:28:28.764Z,30.57
2019-02-19T07:30:58.768Z,29.90
2019-02-19T07:33:27.167Z,26.70
2019-02-19T07:35:55.672Z,49.77
2019-02-19T07:38:24.146Z,39.70
2019-02-19T07:40:52.667Z,29.73
2019-02-19T07:43:21.106Z,30.57
2019-02-19T07:45:49.857Z,31.33
2019-02-19T07:48:18.354Z,28.13
2019-02-19T07:50:46.838Z,35.80
2019-02-19T07:53:15.221Z,34.83
2019-02-19T07:55:43.690Z,32.27
2019-02-19T07:58:12.137Z,37.00
2019-02-19T08:00:40.624Z,31.23
2019-02-19T08:03:08.995Z,33.53
2019-02-19T08:05:37.460Z,34.43
2019-02-19T08:08:06.072Z,31.40
2019-02-19T08:10:34.525Z,29.13
2019-02-19T08:13:03.031Z,43.13
2019-02-19T08:15:31.509Z,34.53
2019-02-19T08:17:59.951Z,27.37
2019-02-19T08:20:28.422Z,34.07
2019-02-19T08:22:56.776Z,28.77
2019-02-19T08:25:25.333Z,29.90
2019-02-19T08:27:53.986Z,31.97
2019-02-19T08:30:22.438Z,31.70
2019-02-19T08:32:50.968Z,34.60
2019-02-19T08:35:19.455Z,34.17
2019-02-19T08:37:47.963Z,30.77
2019-02-19T08:40:16.444Z,32.23
2019-02-19T08:42:44.808Z,33.20
2019-02-19T08:45:13.211Z,26.60
2019-02-19T08:47:42.852Z,31.10
2019-02-19T08:50:11.535Z,30.07
2019-02-19T08:52:40.042Z,31.03
2019-02-19T08:55:08.513Z,30.10
2019-02-19T08:57:36.864Z,34.43
2019-02-19T09:00:08.449Z,34.20
2019-02-19T09:02:36.960Z,33.07
2019-02-19T09:05:07.112Z,28.57
2019-02-19T09:07:35.561Z,34.53
2019-02-19T09:10:05.885Z,39.60
2019-02-19T09:12:34.265Z,41.87
2019-02-19T09:15:02.757Z,35.27
2019-02-19T09:17:31.157Z,35.83
2019-02-19T09:19:59.699Z,34.37
2019-02-19T09:22:28.508Z,31.73
2019-02-19T09:24:57.277Z,47.27
2019-02-19T09:27:25.858Z,36.87
2019-02-19T09:29:54.226Z,37.60
2019-02-19T09:32:22.713Z,49.77
2019-02-19T09:34:52.665Z,44.00
2019-02-19T09:37:21.183Z,42.80
2019-02-19T09:39:49.991Z,39.13
2019-02-19T09:42:18.479Z,36.23
2019-02-19T09:44:47.002Z,38.13
2019-02-19T09:47:15.507Z,42.07
2019-02-19T09:49:43.940Z,41.63
2019-02-19T09:52:12.351Z,40.47
2019-02-19T09:54:40.968Z,41.93
2019-02-19T09:57:11.063Z,44.50
2019-02-19T09:59:39.612Z,47.53
2019-02-19T10:02:08.171Z,46.00
2019-02-19T10:04:36.528Z,41.33
2019-02-19T10:07:05.062Z,38.67
2019-02-19T10:09:33.515Z,46.17
2019-02-19T10:12:01.970Z,42.50
2019-02-19T10:14:30.553Z,44.80
2019-02-19T10:16:58.969Z,42.37
2019-02-19T10:19:27.400Z,44.43
2019-02-19T10:21:55.883Z,43.43
2019-02-19T10:24:24.302Z,44.63
2019-02-19T10:26:52.746Z,45.73
2019-02-19T10:29:21.206Z,48.67
2019-02-19T10:31:49.665Z,42.20
2019-02-19T10:34:18.121Z,65.13
2019-02-19T10:36:46.660Z,52.50
2019-02-19T10:39:15.068Z,45.90
2019-02-19T10:41:43.539Z,46.83
2019-02-19T10:44:12.010Z,60.27
2019-02-19T10:46:40.432Z,50.43
2019-02-19T10:49:08.834Z,55.27
2019-02-19T10:51:37.203Z,49.03
2019-02-19T10:54:05.754Z,45.37
2019-02-19T10:56:34.312Z,53.03
2019-02-19T10:59:02.716Z,42.40
2019-02-19T11:01:31.247Z,40.37
2019-02-19T11:03:59.681Z,54.10
2019-02-19T11:06:28.127Z,42.97
2019-02-19T11:08:56.670Z,58.00
2019-02-19T11:11:25.089Z,46.93
2019-02-19T11:13:53.538Z,40.17
2019-02-19T11:16:21.959Z,46.63
2019-02-19T11:18:50.330Z,48.93
2019-02-19T11:21:19.880Z,45.37
2019-02-19T11:23:48.635Z,45.63
2019-02-19T11:26:17.097Z,41.40
2019-02-19T11:28:45.569Z,43.20
2019-02-19T11:31:14.001Z,43.47
2019-02-19T11:33:42.400Z,45.93
2019-02-19T11:36:10.795Z,41.70
2019-02-19T11:38:39.252Z,37.80
2019-02-19T11:41:07.702Z,40.17
2019-02-19T11:43:36.255Z,34.73
2019-02-19T11:46:04.885Z,50.23
2019-02-19T11:48:36.973Z,37.00
2019-02-19T11:51:03.543Z,38.10
2019-02-19T11:53:31.958Z,38.43
2019-02-19T11:56:00.594Z,40.20
2019-02-19T11:58:29.066Z,38.23
2019-02-19T12:00:57.628Z,39.97
2019-02-19T12:03:26.000Z,38.53
2019-02-19T12:05:54.458Z,35.83
2019-02-19T12:08:22.923Z,36.30
2019-02-19T12:10:51.578Z,37.93
2019-02-19T12:13:20.385Z,40.07
2019-02-19T12:15:48.845Z,34.60
2019-02-19T12:18:17.390Z,47.80
2019-02-19T12:20:46.115Z,36.80
2019-02-19T12:23:14.569Z,46.57
2019-02-19T12:25:43.228Z,32.10
2019-02-19T12:28:11.662Z,40.87
2019-02-19T12:30:40.128Z,40.10
2019-02-19T12:33:08.608Z,47.23
2019-02-19T12:35:36.991Z,42.93
2019-02-19T12:38:05.404Z,36.80
2019-02-19T12:40:33.881Z,48.83
2019-02-19T12:43:02.254Z,38.10
2019-02-19T12:45:30.663Z,33.27
2019-02-19T12:47:59.220Z,37.70
2019-02-19T12:50:27.764Z,39.90
2019-02-19T12:52:56.158Z,41.70
2019-02-19T12:55:24.652Z,39.00
2019-02-19T12:57:53.160Z,37.43
2019-02-19T13:00:21.625Z,44.83
2019-02-19T13:02:50.153Z,49.13
2019-02-19T13:05:18.550Z,38.53
2019-02-19T13:07:47.214Z,38.40
2019-02-19T13:10:15.570Z,42.70
2019-02-19T13:12:44.058Z,62.33
2019-02-19T13:15:18.337Z,39.03
2019-02-19T13:17:47.231Z,44.93
2019-02-19T13:20:15.683Z,38.10
2019-02-19T13:22:44.222Z,44.50
2019-02-19T13:25:12.852Z,38.37
2019-02-19T13:27:41.326Z,40.00
2019-02-19T13:30:18.242Z,45.97
2019-02-19T13:32:46.730Z,38.93
2019-02-19T13:35:15.264Z,32.30
2019-02-19T13:37:43.935Z,39.67
2019-02-19T13:40:21.571Z,34.83
2019-02-19T13:42:49.965Z,40.37
2019-02-19T13:45:18.399Z,30.20
2019-02-19T13:47:47.233Z,34.33
2019-02-19T13:50:18.231Z,33.70
2019-02-19T13:52:51.042Z,35.10
2019-02-19T13:55:21.118Z,37.90
2019-02-19T13:57:49.561Z,33.30
2019-02-19T14:00:22.450Z,30.20
2019-02-19T14:02:50.843Z,35.27
2019-02-19T14:05:19.277Z,30.03
2019-02-19T14:07:47.815Z,26.63
2019-02-19T14:10:16.215Z,28.33
2019-02-19T14:12:44.671Z,30.37
2019-02-19T14:15:29.924Z,29.73
2019-02-19T14:17:59.043Z,28.10
2019-02-19T14:20:37.697Z,26.90
2019-02-19T14:23:19.534Z,29.30
2019-02-19T14:25:52.302Z,38.20
2019-02-19T14:28:22.346Z,24.70
2019-02-19T14:30:55.388Z,39.00
2019-02-19T14:33:48.954Z,30.73
2019-02-19T14:36:21.183Z,22.83
2019-02-19T14:39:07.522Z,28.90
2019-02-19T14:41:55.461Z,26.53
2019-02-19T14:44:25.479Z,30.50
2019-02-19T14:46:58.554Z,27.63
2019-02-19T14:49:37.459Z,30.13
2019-02-19T14:52:06.786Z,36.10
2019-02-19T14:54:39.326Z,23.90
2019-02-19T14:57:09.499Z,26.60
2019-02-19T14:59:42.559Z,26.50
2019-02-19T15:02:24.682Z,25.43
2019-02-19T15:05:06.737Z,34.63
2019-02-19T15:07:39.764Z,28.50
2019-02-19T15:10:29.043Z,26.83
2019-02-19T15:13:05.044Z,28.53
2019-02-19T15:15:35.309Z,24.57
2019-02-19T15:18:14.503Z,26.20
2019-02-19T15:21:00.519Z,31.57
2019-02-19T15:23:42.204Z,26.60
2019-02-19T15:26:12.364Z,36.83
2019-02-19T15:28:57.296Z,30.07
2019-02-19T15:31:27.481Z,37.23
2019-02-19T15:34:00.254Z,24.00
2019-02-19T15:36:39.318Z,28.03
2019-02-19T15:39:09.558Z,38.40
2019-02-19T15:41:58.033Z,19.77
2019-02-19T15:44:28.030Z,23.50
2019-02-19T15:47:03.659Z,27.83
2019-02-19T15:49:33.675Z,28.80
2019-02-19T15:52:03.790Z,29.50
2019-02-19T15:54:33.813Z,26.13
2019-02-19T15:57:09.548Z,27.70
2019-02-19T15:59:42.597Z,19.30
2019-02-19T16:02:21.338Z,24.33
2019-02-19T16:04:51.415Z,25.67
2019-02-19T16:07:35.990Z,28.87
2019-02-19T16:10:21.831Z,33.37
2019-02-19T16:12:54.930Z,25.53
2019-02-19T16:15:28.147Z,24.47
2019-02-19T16:18:01.310Z,19.10
2019-02-19T16:20:34.350Z,19.23
2019-02-19T16:23:16.113Z,20.30
2019-02-19T16:26:03.814Z,22.03
2019-02-19T16:28:37.056Z,27.90
2019-02-19T16:31:23.615Z,27.53
2019-02-19T16:33:53.708Z,24.83
2019-02-19T16:36:29.479Z,20.73
2019-02-19T16:39:05.253Z,26.00
2019-02-19T16:41:38.019Z,21.50
2019-02-19T16:44:27.676Z,17.33
2019-02-19T16:46:57.764Z,27.40
2019-02-19T16:49:28.060Z,20.37
2019-02-19T16:51:58.181Z,29.23
2019-02-19T16:54:28.363Z,26.23
2019-02-19T16:56:58.446Z,21.10
2019-02-19T16:59:44.743Z,20.83
2019-02-19T17:02:14.881Z,27.70
2019-02-19T17:04:44.919Z,29.53
2019-02-19T17:07:17.689Z,22.33
2019-02-19T17:09:50.888Z,23.63
2019-02-19T17:12:23.663Z,20.23
2019-02-19T17:14:53.681Z,23.53
2019-02-19T17:17:23.707Z,22.93
2019-02-19T17:20:05.857Z,22.47
2019-02-19T17:22:44.483Z,17.53
2019-02-19T17:25:17.655Z,24.23
2019-02-19T17:28:05.481Z,26.33
2019-02-19T17:30:51.520Z,32.50
2019-02-19T17:33:21.533Z,25.23
2019-02-19T17:35:52.524Z,18.33
2019-02-19T17:38:25.726Z,18.33
2019-02-19T17:41:01.404Z,20.70
2019-02-19T17:43:46.118Z,17.30
2019-02-19T17:46:16.258Z,15.47
2019-02-19T17:48:51.996Z,23.00
2019-02-19T17:51:22.058Z,22.10
2019-02-19T17:54:08.703Z,18.30
2019-02-19T17:56:54.703Z,20.17
2019-02-19T17:59:24.989Z,18.57
2019-02-19T18:01:57.838Z,21.33
2019-02-19T18:04:30.355Z,19.07
2019-02-19T18:07:06.150Z,20.97
2019-02-19T18:09:36.297Z,16.97
2019-02-19T18:12:06.426Z,31.63
2019-02-19T18:14:42.315Z,17.97
2019-02-19T18:17:12.354Z,14.10
2019-02-19T18:19:40.727Z,15.80
2019-02-19T18:22:09.080Z,16.67
2019-02-19T18:24:37.577Z,21.57
2019-02-19T18:27:06.038Z,16.03
2019-02-19T18:29:34.423Z,17.67
2019-02-19T18:32:02.888Z,23.27
2019-02-19T18:34:31.297Z,47.37
2019-02-19T18:36:59.719Z,20.97
2019-02-19T18:39:28.282Z,20.93
2019-02-19T18:41:57.582Z,20.30
2019-02-19T18:44:26.030Z,14.07
2019-02-19T18:46:54.560Z,18.40
2019-02-19T18:49:23.088Z,20.47
2019-02-19T18:51:51.964Z,16.90
2019-02-19T18:54:20.394Z,15.50
2019-02-19T18:56:48.862Z,15.80
2019-02-19T18:59:17.388Z,18.83
2019-02-19T19:01:45.832Z,16.43
2019-02-19T19:04:14.268Z,15.43
2019-02-19T19:06:42.849Z,26.33
2019-02-19T19:09:11.294Z,16.87
2019-02-19T19:11:41.955Z,23.00
2019-02-19T19:14:10.185Z,20.33
2019-02-19T19:16:38.574Z,25.63
2019-02-19T19:19:06.958Z,17.93
2019-02-19T19:21:35.426Z,20.60
2019-02-19T19:24:03.910Z,17.53
2019-02-19T19:26:32.658Z,21.20
2019-02-19T19:29:01.026Z,22.80
2019-02-19T19:31:33.411Z,18.43
2019-02-19T19:33:59.731Z,21.90
2019-02-19T19:36:28.194Z,15.93
2019-02-19T19:38:56.601Z,16.50
2019-02-19T19:41:25.205Z,16.13
2019-02-19T19:43:53.695Z,18.70
2019-02-19T19:46:22.158Z,24.93
2019-02-19T19:48:50.581Z,19.40
2019-02-19T19:51:18.942Z,21.40
2019-02-19T19:53:47.442Z,15.60
2019-02-19T19:56:15.882Z,15.53
2019-02-19T19:58:44.346Z,15.40
2019-02-19T20:01:12.710Z,18.33
2019-02-19T20:03:41.256Z,15.93
2019-02-19T20:06:09.778Z,16.90
2019-02-19T20:08:38.491Z,19.20
2019-02-19T20:11:07.333Z,17.60
2019-02-19T20:13:35.922Z,19.93
2019-02-19T20:16:05.261Z,17.57
2019-02-19T20:18:39.073Z,17.63
2019-02-19T20:21:04.364Z,16.33
2019-02-19T20:23:32.811Z,19.87
2019-02-19T20:26:01.304Z,16.83
2019-02-19T20:28:30.443Z,16.90
2019-02-19T20:30:58.840Z,16.00
2019-02-19T20:33:27.195Z,19.33
2019-02-19T20:35:55.968Z,18.03
2019-02-19T20:38:24.470Z,15.30
2019-02-19T20:40:53.035Z,19.23
2019-02-19T20:43:21.628Z,17.00
2019-02-19T20:45:50.140Z,20.57
2019-02-19T20:48:18.615Z,14.17
2019-02-19T20:50:47.116Z,17.30
2019-02-19T20:53:15.576Z,17.97
2019-02-19T20:55:44.090Z,26.40
2019-02-19T20:58:12.615Z,20.30
2019-02-19T21:00:41.100Z,17.73
2019-02-19T21:03:09.575Z,20.43
2019-02-19T21:05:38.131Z,19.63
2019-02-19T21:08:06.540Z,21.10
2019-02-19T21:10:34.946Z,16.70
2019-02-19T21:13:03.416Z,20.33
2019-02-19T21:15:31.818Z,19.63
2019-02-19T21:18:00.264Z,19.20
2019-02-19T21:20:28.722Z,21.33
2019-02-19T21:22:57.129Z,19.27
2019-02-19T21:25:31.079Z,22.03
2019-02-19T21:27:55.788Z,20.60
2019-02-19T21:30:24.157Z,17.80
2019-02-19T21:32:52.583Z,18.23
2019-02-19T21:35:21.059Z,17.23
2019-02-19T21:37:49.565Z,15.60
2019-02-19T21:40:18.039Z,16.60
2019-02-19T21:42:46.497Z,17.63
2019-02-19T21:45:15.569Z,15.40
2019-02-19T21:47:44.057Z,18.43
2019-02-19T21:50:15.553Z,20.13
2019-02-19T21:52:43.698Z,14.10
2019-02-19T21:55:12.928Z,15.73
2019-02-19T21:57:41.372Z,15.73
2019-02-19T22:00:13.778Z,14.67
2019-02-19T22:02:42.496Z,23.70
2019-02-19T22:05:10.892Z,15.33
2019-02-19T22:07:39.352Z,17.00
2019-02-19T22:10:12.505Z,16.43
2019-02-19T22:12:41.312Z,14.63
2019-02-19T22:15:11.721Z,15.50
2019-02-19T22:17:40.165Z,15.93
2019-02-19T22:20:34.311Z,16.10
2019-02-19T22:23:02.812Z,12.37
2019-02-19T22:25:31.270Z,12.60
2019-02-19T22:28:00.036Z,12.17
2019-02-19T22:30:28.612Z,12.43
2019-02-19T22:32:57.068Z,15.33
2019-02-19T22:35:25.523Z,15.40
2019-02-19T22:37:53.972Z,13.87
2019-02-19T22:40:22.440Z,15.47
2019-02-19T22:42:50.913Z,15.00
2019-02-19T22:45:19.358Z,16.53
2019-02-19T22:47:53.406Z,13.23
2019-02-19T22:50:17.989Z,17.27
2019-02-19T22:52:46.477Z,13.73
2019-02-19T22:55:22.314Z,13.90
2019-02-19T22:57:50.781Z,15.80
2019-02-19T23:00:32.527Z,21.57
2019-02-19T23:03:00.934Z,15.97
2019-02-19T23:05:29.319Z,16.20
2019-02-19T23:07:57.704Z,16.30
2019-02-19T23:10:26.150Z,24.90
2019-02-19T23:12:54.603Z,17.97
2019-02-19T23:15:23.294Z,18.60
2019-02-19T23:17:51.675Z,15.80
2019-02-19T23:20:20.058Z,17.20
2019-02-19T23:22:48.538Z,18.07
2019-02-19T23:25:16.964Z,20.57
2019-02-19T23:27:45.533Z,19.47
2019-02-19T23:30:14.025Z,17.20
2019-02-19T23:32:42.743Z,16.97
2019-02-19T23:35:24.936Z,22.67
2019-02-19T23:37:53.480Z,20.80
2019-02-19T23:40:21.995Z,21.87
2019-02-19T23:42:50.712Z,20.00
2019-02-19T23:45:19.082Z,21.30
2019-02-19T23:47:47.499Z,22.93
2019-02-19T23:50:16.017Z,21.67
2019-02-19T23:52:44.661Z,24.33
2019-02-19T23:55:13.104Z,23.23
2019-02-19T23:57:41.642Z,30.20
